sensor_id;sensor_type;location;lat;lon;timestamp;pressure;altitude;pressure_sealevel;temperature;humidity
64095;BME280;50353;51.420;5.682;2023-12-20T00:01:34;101400.50;;;7.11;100.00
64095;BME280;50353;51.420;5.682;2023-12-20T00:04:00;101412.41;;;7.22;100.00
64095;BME280;50353;51.420;5.682;2023-12-20T00:06:25;101416.06;;;7.18;100.00
64095;BME280;50353;51.420;5.682;2023-12-20T00:08:50;101410.44;;;7.03;100.00
64095;BME280;50353;51.420;5.682;2023-12-20T00:11:16;101420.63;;;7.13;100.00
64095;BME280;50353;51.420;5.682;2023-12-20T00:13:41;101425.81;;;6.90;100.00
64095;BME280;50353;51.420;5.682;2023-12-20T00:16:06;101424.25;;;6.85;100.00
64095;BME280;50353;51.420;5.682;2023-12-20T00:18:32;101425.94;;;7.11;100.00
64095;BME280;50353;51.420;5.682;2023-12-20T00:20:57;101435.88;;;7.03;100.00
64095;BME280;50353;51.420;5.682;2023-12-20T00:23:23;101436.91;;;6.99;100.00
64095;BME280;50353;51.420;5.682;2023-12-20T00:25:48;101424.78;;;6.94;100.00
64095;BME280;50353;51.420;5.682;2023-12-20T00:28:14;101422.38;;;6.88;100.00
64095;BME280;50353;51.420;5.682;2023-12-20T00:30:39;101418.44;;;6.50;100.00
64095;BME280;50353;51.420;5.682;2023-12-20T00:33:04;101431.69;;;6.47;100.00
64095;BME280;50353;51.420;5.682;2023-12-20T00:35:30;101434.09;;;6.53;100.00
64095;BME280;50353;51.420;5.682;2023-12-20T00:37:55;101427.78;;;6.58;100.00
64095;BME280;50353;51.420;5.682;2023-12-20T00:40:20;101422.91;;;6.48;100.00
64095;BME280;50353;51.420;5.682;2023-12-20T00:42:46;101437.19;;;6.39;100.00
64095;BME280;50353;51.420;5.682;2023-12-20T00:45:12;101435.28;;;6.44;100.00
64095;BME280;50353;51.420;5.682;2023-12-20T00:47:37;101424.72;;;6.46;100.00
64095;BME280;50353;51.420;5.682;2023-12-20T00:50:03;101419.28;;;6.25;100.00
64095;BME280;50353;51.420;5.682;2023-12-20T00:52:28;101422.38;;;6.36;100.00
64095;BME280;50353;51.420;5.682;2023-12-20T00:54:53;101418.84;;;6.37;100.00
64095;BME280;50353;51.420;5.682;2023-12-20T00:57:19;101410.50;;;6.26;100.00
64095;BME280;50353;51.420;5.682;2023-12-20T00:59:44;101419.94;;;6.32;100.00
64095;BME280;50353;51.420;5.682;2023-12-20T01:02:09;101416.94;;;6.16;100.00
64095;BME280;50353;51.420;5.682;2023-12-20T01:04:35;101411.53;;;5.92;100.00
64095;BME280;50353;51.420;5.682;2023-12-20T01:07:00;101402.75;;;5.93;100.00
64095;BME280;50353;51.420;5.682;2023-12-20T01:09:25;101402.56;;;6.28;100.00
64095;BME280;50353;51.420;5.682;2023-12-20T01:11:54;101414.00;;;5.97;100.00
64095;BME280;50353;51.420;5.682;2023-12-20T01:14:19;101414.00;;;5.97;100.00
64095;BME280;50353;51.420;5.682;2023-12-20T01:16:44;101411.63;;;5.89;100.00
64095;BME280;50353;51.420;5.682;2023-12-20T01:19:10;101420.66;;;5.80;100.00
64095;BME280;50353;51.420;5.682;2023-12-20T01:21:35;101430.75;;;5.92;100.00
64095;BME280;50353;51.420;5.682;2023-12-20T01:24:01;101424.41;;;6.01;100.00
64095;BME280;50353;51.420;5.682;2023-12-20T01:26:26;101420.84;;;6.02;100.00
64095;BME280;50353;51.420;5.682;2023-12-20T01:28:51;101417.50;;;5.99;100.00
64095;BME280;50353;51.420;5.682;2023-12-20T01:31:17;101416.97;;;5.86;100.00
64095;BME280;50353;51.420;5.682;2023-12-20T01:33:42;101426.72;;;5.82;100.00
64095;BME280;50353;51.420;5.682;2023-12-20T01:36:08;101430.34;;;5.78;100.00
64095;BME280;50353;51.420;5.682;2023-12-20T01:38:33;101438.38;;;5.72;100.00
64095;BME280;50353;51.420;5.682;2023-12-20T01:40:59;101439.44;;;5.66;100.00
64095;BME280;50353;51.420;5.682;2023-12-20T01:43:25;101435.75;;;5.72;100.00
64095;BME280;50353;51.420;5.682;2023-12-20T01:45:51;101444.53;;;5.71;100.00
64095;BME280;50353;51.420;5.682;2023-12-20T01:48:17;101438.06;;;5.83;100.00
64095;BME280;50353;51.420;5.682;2023-12-20T01:50:44;101431.19;;;5.79;100.00
64095;BME280;50353;51.420;5.682;2023-12-20T01:53:12;101433.88;;;5.77;100.00
64095;BME280;50353;51.420;5.682;2023-12-20T01:55:39;101420.88;;;5.72;100.00
64095;BME280;50353;51.420;5.682;2023-12-20T01:58:05;101430.81;;;5.91;100.00
64095;BME280;50353;51.420;5.682;2023-12-20T02:00:32;101433.38;;;5.92;100.00
64095;BME280;50353;51.420;5.682;2023-12-20T02:03:00;101442.47;;;5.82;100.00
64095;BME280;50353;51.420;5.682;2023-12-20T02:05:26;101439.59;;;5.90;100.00
64095;BME280;50353;51.420;5.682;2023-12-20T02:07:53;101444.31;;;5.79;100.00
64095;BME280;50353;51.420;5.682;2023-12-20T02:10:18;101441.25;;;5.92;100.00
64095;BME280;50353;51.420;5.682;2023-12-20T02:12:44;101438.84;;;5.86;100.00
64095;BME280;50353;51.420;5.682;2023-12-20T02:15:09;101432.91;;;6.08;100.00
64095;BME280;50353;51.420;5.682;2023-12-20T02:17:36;101416.56;;;6.00;100.00
64095;BME280;50353;51.420;5.682;2023-12-20T02:20:01;101431.31;;;6.04;100.00
64095;BME280;50353;51.420;5.682;2023-12-20T02:22:27;101445.50;;;5.97;100.00
64095;BME280;50353;51.420;5.682;2023-12-20T02:24:53;101446.44;;;5.94;100.00
64095;BME280;50353;51.420;5.682;2023-12-20T02:27:19;101433.19;;;6.00;100.00
64095;BME280;50353;51.420;5.682;2023-12-20T02:29:46;101431.81;;;5.87;100.00
64095;BME280;50353;51.420;5.682;2023-12-20T02:32:12;101429.47;;;5.78;100.00
64095;BME280;50353;51.420;5.682;2023-12-20T02:34:37;101432.97;;;5.78;100.00
64095;BME280;50353;51.420;5.682;2023-12-20T02:37:03;101427.00;;;5.73;100.00
64095;BME280;50353;51.420;5.682;2023-12-20T02:39:28;101432.88;;;5.81;100.00
64095;BME280;50353;51.420;5.682;2023-12-20T02:41:53;101425.09;;;5.78;100.00
64095;BME280;50353;51.420;5.682;2023-12-20T02:44:19;101427.34;;;5.90;100.00
64095;BME280;50353;51.420;5.682;2023-12-20T02:46:44;101427.84;;;6.03;100.00
64095;BME280;50353;51.420;5.682;2023-12-20T02:49:09;101432.53;;;5.92;100.00
64095;BME280;50353;51.420;5.682;2023-12-20T02:51:35;101427.47;;;5.86;100.00
64095;BME280;50353;51.420;5.682;2023-12-20T02:54:03;101420.97;;;5.99;100.00
64095;BME280;50353;51.420;5.682;2023-12-20T02:56:28;101419.66;;;5.84;100.00
64095;BME280;50353;51.420;5.682;2023-12-20T02:58:53;101421.09;;;5.95;100.00
64095;BME280;50353;51.420;5.682;2023-12-20T03:01:19;101425.84;;;5.82;100.00
64095;BME280;50353;51.420;5.682;2023-12-20T03:03:44;101422.44;;;5.80;100.00
64095;BME280;50353;51.420;5.682;2023-12-20T03:06:10;101429.19;;;5.87;100.00
64095;BME280;50353;51.420;5.682;2023-12-20T03:08:35;101431.63;;;5.65;100.00
64095;BME280;50353;51.420;5.682;2023-12-20T03:11:00;101423.03;;;5.88;100.00
64095;BME280;50353;51.420;5.682;2023-12-20T03:13:26;101427.34;;;5.90;100.00
64095;BME280;50353;51.420;5.682;2023-12-20T03:15:51;101426.09;;;5.74;100.00
64095;BME280;50353;51.420;5.682;2023-12-20T03:18:16;101423.94;;;5.87;100.00
64095;BME280;50353;51.420;5.682;2023-12-20T03:20:43;101432.66;;;5.87;100.00
64095;BME280;50353;51.420;5.682;2023-12-20T03:23:08;101421.06;;;5.66;100.00
64095;BME280;50353;51.420;5.682;2023-12-20T03:25:34;101421.81;;;5.71;100.00
64095;BME280;50353;51.420;5.682;2023-12-20T03:28:00;101412.44;;;5.91;100.00
64095;BME280;50353;51.420;5.682;2023-12-20T03:30:25;101409.31;;;5.80;100.00
64095;BME280;50353;51.420;5.682;2023-12-20T03:32:51;101421.25;;;5.60;100.00
64095;BME280;50353;51.420;5.682;2023-12-20T03:35:16;101406.50;;;5.56;100.00
64095;BME280;50353;51.420;5.682;2023-12-20T03:37:41;101403.63;;;5.65;100.00
64095;BME280;50353;51.420;5.682;2023-12-20T03:40:07;101408.06;;;5.63;100.00
64095;BME280;50353;51.420;5.682;2023-12-20T03:42:32;101410.41;;;5.42;100.00
64095;BME280;50353;51.420;5.682;2023-12-20T03:44:58;101407.06;;;5.37;100.00
64095;BME280;50353;51.420;5.682;2023-12-20T03:47:23;101416.56;;;5.41;100.00
64095;BME280;50353;51.420;5.682;2023-12-20T03:49:48;101410.81;;;5.29;100.00
64095;BME280;50353;51.420;5.682;2023-12-20T03:52:13;101404.31;;;5.42;100.00
64095;BME280;50353;51.420;5.682;2023-12-20T03:54:39;101391.41;;;5.36;100.00
64095;BME280;50353;51.420;5.682;2023-12-20T03:57:05;101393.78;;;5.44;100.00
64095;BME280;50353;51.420;5.682;2023-12-20T03:59:34;101400.69;;;5.46;100.00
64095;BME280;50353;51.420;5.682;2023-12-20T04:02:00;101411.44;;;5.67;100.00
64095;BME280;50353;51.420;5.682;2023-12-20T04:04:25;101413.91;;;5.43;100.00
64095;BME280;50353;51.420;5.682;2023-12-20T04:06:50;101416.38;;;5.48;100.00
64095;BME280;50353;51.420;5.682;2023-12-20T04:09:16;101423.59;;;5.69;100.00
64095;BME280;50353;51.420;5.682;2023-12-20T04:11:41;101421.97;;;5.65;100.00
64095;BME280;50353;51.420;5.682;2023-12-20T04:14:06;101422.97;;;5.61;100.00
64095;BME280;50353;51.420;5.682;2023-12-20T04:16:32;101406.47;;;5.86;100.00
64095;BME280;50353;51.420;5.682;2023-12-20T04:18:57;101418.66;;;5.88;100.00
64095;BME280;50353;51.420;5.682;2023-12-20T04:21:23;101418.81;;;5.84;100.00
64095;BME280;50353;51.420;5.682;2023-12-20T04:23:48;101407.75;;;6.02;100.00
64095;BME280;50353;51.420;5.682;2023-12-20T04:26:13;101408.03;;;5.91;100.00
64095;BME280;50353;51.420;5.682;2023-12-20T04:28:39;101415.25;;;5.85;100.00
64095;BME280;50353;51.420;5.682;2023-12-20T04:31:04;101409.66;;;5.96;100.00
64095;BME280;50353;51.420;5.682;2023-12-20T04:33:29;101409.63;;;5.97;100.00
64095;BME280;50353;51.420;5.682;2023-12-20T04:35:54;101414.13;;;5.93;100.00
64095;BME280;50353;51.420;5.682;2023-12-20T04:38:20;101416.63;;;5.97;100.00
64095;BME280;50353;51.420;5.682;2023-12-20T04:40:45;101421.69;;;6.04;100.00
64095;BME280;50353;51.420;5.682;2023-12-20T04:43:10;101411.28;;;6.01;100.00
64095;BME280;50353;51.420;5.682;2023-12-20T04:45:36;101411.94;;;6.08;100.00
64095;BME280;50353;51.420;5.682;2023-12-20T04:48:02;101411.91;;;6.09;100.00
64095;BME280;50353;51.420;5.682;2023-12-20T04:50:27;101408.41;;;6.09;100.00
64095;BME280;50353;51.420;5.682;2023-12-20T04:52:53;101402.00;;;6.18;100.00
64095;BME280;50353;51.420;5.682;2023-12-20T04:55:18;101407.16;;;6.21;100.00
64095;BME280;50353;51.420;5.682;2023-12-20T04:57:43;101409.97;;;6.15;100.00
64095;BME280;50353;51.420;5.682;2023-12-20T05:00:09;101400.13;;;6.21;100.00
64095;BME280;50353;51.420;5.682;2023-12-20T05:02:35;101410.13;;;6.10;100.00
64095;BME280;50353;51.420;5.682;2023-12-20T05:05:01;101415.19;;;6.16;100.00
64095;BME280;50353;51.420;5.682;2023-12-20T05:07:26;101412.50;;;6.18;100.00
64095;BME280;50353;51.420;5.682;2023-12-20T05:09:52;101402.91;;;6.17;100.00
64095;BME280;50353;51.420;5.682;2023-12-20T05:12:17;101408.72;;;6.26;100.00
64095;BME280;50353;51.420;5.682;2023-12-20T05:14:42;101402.81;;;6.20;100.00
64095;BME280;50353;51.420;5.682;2023-12-20T05:17:08;101392.16;;;6.24;100.00
64095;BME280;50353;51.420;5.682;2023-12-20T05:19:33;101394.31;;;6.38;100.00
64095;BME280;50353;51.420;5.682;2023-12-20T05:22:01;101385.44;;;6.42;100.00
64095;BME280;50353;51.420;5.682;2023-12-20T05:24:27;101389.16;;;6.35;100.00
64095;BME280;50353;51.420;5.682;2023-12-20T05:26:52;101388.41;;;6.32;100.00
64095;BME280;50353;51.420;5.682;2023-12-20T05:29:18;101382.91;;;6.39;100.00
64095;BME280;50353;51.420;5.682;2023-12-20T05:31:43;101377.09;;;6.30;100.00
64095;BME280;50353;51.420;5.682;2023-12-20T05:34:08;101384.53;;;6.43;100.00
64095;BME280;50353;51.420;5.682;2023-12-20T05:36:33;101386.16;;;6.48;100.00
64095;BME280;50353;51.420;5.682;2023-12-20T05:38:59;101381.03;;;6.43;100.00
64095;BME280;50353;51.420;5.682;2023-12-20T05:41:24;101371.34;;;6.45;100.00
64095;BME280;50353;51.420;5.682;2023-12-20T05:43:49;101368.81;;;6.42;100.00
64095;BME280;50353;51.420;5.682;2023-12-20T05:46:15;101376.00;;;6.37;100.00
64095;BME280;50353;51.420;5.682;2023-12-20T05:48:41;101380.06;;;6.46;100.00
64095;BME280;50353;51.420;5.682;2023-12-20T05:51:06;101384.84;;;6.34;100.00
64095;BME280;50353;51.420;5.682;2023-12-20T05:53:31;101381.69;;;6.50;100.00
64095;BME280;50353;51.420;5.682;2023-12-20T05:55:57;101377.97;;;6.55;100.00
64095;BME280;50353;51.420;5.682;2023-12-20T05:58:22;101391.78;;;6.35;100.00
64095;BME280;50353;51.420;5.682;2023-12-20T06:00:47;101393.03;;;6.50;100.00
64095;BME280;50353;51.420;5.682;2023-12-20T06:03:14;101392.84;;;6.30;100.00
64095;BME280;50353;51.420;5.682;2023-12-20T06:05:39;101393.44;;;6.39;100.00
64095;BME280;50353;51.420;5.682;2023-12-20T06:08:04;101398.75;;;6.36;100.00
64095;BME280;50353;51.420;5.682;2023-12-20T06:10:30;101403.06;;;6.39;100.00
64095;BME280;50353;51.420;5.682;2023-12-20T06:12:55;101401.19;;;6.42;100.00
64095;BME280;50353;51.420;5.682;2023-12-20T06:15:21;101402.28;;;6.35;100.00
64095;BME280;50353;51.420;5.682;2023-12-20T06:17:46;101408.19;;;6.42;100.00
64095;BME280;50353;51.420;5.682;2023-12-20T06:20:12;101404.59;;;6.45;100.00
64095;BME280;50353;51.420;5.682;2023-12-20T06:22:38;101403.28;;;6.31;100.00
64095;BME280;50353;51.420;5.682;2023-12-20T06:25:04;101404.22;;;6.30;100.00
64095;BME280;50353;51.420;5.682;2023-12-20T06:27:30;101412.75;;;6.37;100.00
64095;BME280;50353;51.420;5.682;2023-12-20T06:29:57;101411.88;;;6.36;100.00
64095;BME280;50353;51.420;5.682;2023-12-20T06:32:23;101417.78;;;6.43;100.00
64095;BME280;50353;51.420;5.682;2023-12-20T06:34:48;101417.41;;;6.29;100.00
64095;BME280;50353;51.420;5.682;2023-12-20T06:37:14;101405.44;;;6.20;100.00
64095;BME280;50353;51.420;5.682;2023-12-20T06:39:40;101414.91;;;6.24;100.00
64095;BME280;50353;51.420;5.682;2023-12-20T06:42:05;101418.84;;;6.11;100.00
64095;BME280;50353;51.420;5.682;2023-12-20T06:44:31;101423.34;;;6.07;100.00
64095;BME280;50353;51.420;5.682;2023-12-20T06:46:56;101415.72;;;5.99;100.00
64095;BME280;50353;51.420;5.682;2023-12-20T06:49:22;101404.56;;;5.91;100.00
64095;BME280;50353;51.420;5.682;2023-12-20T06:51:47;101415.34;;;5.82;100.00
64095;BME280;50353;51.420;5.682;2023-12-20T06:54:12;101414.84;;;5.70;100.00
64095;BME280;50353;51.420;5.682;2023-12-20T06:56:38;101410.97;;;5.82;100.00
64095;BME280;50353;51.420;5.682;2023-12-20T06:59:03;101415.06;;;5.91;100.00
64095;BME280;50353;51.420;5.682;2023-12-20T07:01:28;101417.44;;;5.70;100.00
64095;BME280;50353;51.420;5.682;2023-12-20T07:03:54;101411.59;;;5.62;100.00
64095;BME280;50353;51.420;5.682;2023-12-20T07:06:19;101410.69;;;5.62;100.00
64095;BME280;50353;51.420;5.682;2023-12-20T07:08:45;101400.66;;;5.76;100.00
64095;BME280;50353;51.420;5.682;2023-12-20T07:11:10;101401.19;;;5.87;100.00
64095;BME280;50353;51.420;5.682;2023-12-20T07:13:36;101404.25;;;5.73;100.00
64095;BME280;50353;51.420;5.682;2023-12-20T07:16:02;101402.75;;;5.65;100.00
64095;BME280;50353;51.420;5.682;2023-12-20T07:18:28;101393.91;;;5.69;100.00
64095;BME280;50353;51.420;5.682;2023-12-20T07:20:53;101398.13;;;5.73;100.00
64095;BME280;50353;51.420;5.682;2023-12-20T07:23:19;101398.50;;;5.89;100.00
64095;BME280;50353;51.420;5.682;2023-12-20T07:25:45;101404.97;;;5.79;100.00
64095;BME280;50353;51.420;5.682;2023-12-20T07:28:10;101402.34;;;5.79;100.00
64095;BME280;50353;51.420;5.682;2023-12-20T07:30:36;101399.44;;;5.88;100.00
64095;BME280;50353;51.420;5.682;2023-12-20T07:33:01;101414.72;;;5.73;100.00
64095;BME280;50353;51.420;5.682;2023-12-20T07:35:27;101418.13;;;5.77;100.00
64095;BME280;50353;51.420;5.682;2023-12-20T07:37:53;101416.22;;;5.82;100.00
64095;BME280;50353;51.420;5.682;2023-12-20T07:40:18;101424.16;;;5.79;100.00
64095;BME280;50353;51.420;5.682;2023-12-20T07:42:44;101411.53;;;5.92;100.00
64095;BME280;50353;51.420;5.682;2023-12-20T07:45:09;101418.41;;;5.96;100.00
64095;BME280;50353;51.420;5.682;2023-12-20T07:47:35;101414.16;;;5.92;100.00
64095;BME280;50353;51.420;5.682;2023-12-20T07:50:01;101405.34;;;5.95;100.00
64095;BME280;50353;51.420;5.682;2023-12-20T07:52:28;101405.56;;;5.87;100.00
64095;BME280;50353;51.420;5.682;2023-12-20T07:54:54;101408.91;;;5.92;100.00
64095;BME280;50353;51.420;5.682;2023-12-20T07:57:19;101408.16;;;5.88;100.00
64095;BME280;50353;51.420;5.682;2023-12-20T07:59:45;101402.00;;;5.89;100.00
64095;BME280;50353;51.420;5.682;2023-12-20T08:02:10;101403.72;;;5.90;100.00
64095;BME280;50353;51.420;5.682;2023-12-20T08:04:35;101404.69;;;5.88;100.00
64095;BME280;50353;51.420;5.682;2023-12-20T08:07:01;101415.22;;;5.86;100.00
64095;BME280;50353;51.420;5.682;2023-12-20T08:09:26;101419.75;;;5.81;100.00
64095;BME280;50353;51.420;5.682;2023-12-20T08:11:51;101416.34;;;5.78;100.00
64095;BME280;50353;51.420;5.682;2023-12-20T08:14:17;101409.03;;;5.87;100.00
64095;BME280;50353;51.420;5.682;2023-12-20T08:16:42;101414.00;;;5.97;100.00
64095;BME280;50353;51.420;5.682;2023-12-20T08:19:07;101417.94;;;6.12;100.00
64095;BME280;50353;51.420;5.682;2023-12-20T08:21:33;101417.78;;;5.88;100.00
64095;BME280;50353;51.420;5.682;2023-12-20T08:23:58;101420.97;;;5.99;100.00
64095;BME280;50353;51.420;5.682;2023-12-20T08:26:26;101431.72;;;5.90;100.00
64095;BME280;50353;51.420;5.682;2023-12-20T08:28:51;101425.03;;;6.09;100.00
64095;BME280;50353;51.420;5.682;2023-12-20T08:31:17;101433.44;;;5.91;100.00
64095;BME280;50353;51.420;5.682;2023-12-20T08:33:44;101426.09;;;6.02;100.00
64095;BME280;50353;51.420;5.682;2023-12-20T08:36:09;101432.69;;;6.16;100.00
64095;BME280;50353;51.420;5.682;2023-12-20T08:38:35;101427.88;;;6.02;100.00
64095;BME280;50353;51.420;5.682;2023-12-20T08:41:01;101437.09;;;6.15;100.00
64095;BME280;50353;51.420;5.682;2023-12-20T08:43:29;101430.28;;;6.09;100.00
64095;BME280;50353;51.420;5.682;2023-12-20T08:45:54;101433.59;;;6.15;100.00
64095;BME280;50353;51.420;5.682;2023-12-20T08:48:19;101424.91;;;6.13;100.00
64095;BME280;50353;51.420;5.682;2023-12-20T08:50:45;101421.56;;;6.07;100.00
64095;BME280;50353;51.420;5.682;2023-12-20T08:53:10;101405.13;;;6.02;100.00
64095;BME280;50353;51.420;5.682;2023-12-20T08:55:36;101407.50;;;6.37;100.00
64095;BME280;50353;51.420;5.682;2023-12-20T08:58:01;101385.84;;;6.30;100.00
64095;BME280;50353;51.420;5.682;2023-12-20T09:00:26;101380.31;;;6.13;100.00
64095;BME280;50353;51.420;5.682;2023-12-20T09:02:53;101371.66;;;6.09;100.00
64095;BME280;50353;51.420;5.682;2023-12-20T09:05:19;101372.94;;;6.49;100.00
64095;BME280;50353;51.420;5.682;2023-12-20T09:07:45;101368.59;;;6.48;100.00
64095;BME280;50353;51.420;5.682;2023-12-20T09:10:10;101363.50;;;6.69;100.00
64095;BME280;50353;51.420;5.682;2023-12-20T09:12:36;101378.00;;;7.04;100.00
64095;BME280;50353;51.420;5.682;2023-12-20T09:15:04;101371.56;;;6.64;100.00
64095;BME280;50353;51.420;5.682;2023-12-20T09:17:30;101383.59;;;6.95;100.00
64095;BME280;50353;51.420;5.682;2023-12-20T09:19:56;101374.59;;;6.77;100.00
64095;BME280;50353;51.420;5.682;2023-12-20T09:22:21;101393.72;;;6.55;100.00
64095;BME280;50353;51.420;5.682;2023-12-20T09:24:47;101390.91;;;6.62;100.00
64095;BME280;50353;51.420;5.682;2023-12-20T09:27:12;101394.06;;;6.71;100.00
64095;BME280;50353;51.420;5.682;2023-12-20T09:29:38;101395.22;;;6.37;100.00
64095;BME280;50353;51.420;5.682;2023-12-20T09:32:03;101400.72;;;6.56;100.00
64095;BME280;50353;51.420;5.682;2023-12-20T09:34:29;101404.31;;;6.54;100.00
64095;BME280;50353;51.420;5.682;2023-12-20T09:36:54;101407.75;;;6.56;100.00
64095;BME280;50353;51.420;5.682;2023-12-20T09:39:21;101405.19;;;6.53;100.00
64095;BME280;50353;51.420;5.682;2023-12-20T09:42:00;101405.00;;;6.59;100.00
64095;BME280;50353;51.420;5.682;2023-12-20T09:44:26;101392.84;;;6.56;100.00
64095;BME280;50353;51.420;5.682;2023-12-20T09:46:52;101385.44;;;6.42;100.00
64095;BME280;50353;51.420;5.682;2023-12-20T09:49:19;101393.53;;;6.62;100.00
64095;BME280;50353;51.420;5.682;2023-12-20T09:51:46;101398.25;;;6.52;100.00
64095;BME280;50353;51.420;5.682;2023-12-20T09:54:14;101386.63;;;6.59;100.00
64095;BME280;50353;51.420;5.682;2023-12-20T09:56:39;101382.38;;;6.55;100.00
64095;BME280;50353;51.420;5.682;2023-12-20T09:59:04;101390.47;;;6.74;100.00
64095;BME280;50353;51.420;5.682;2023-12-20T10:01:31;101387.25;;;6.66;100.00
64095;BME280;50353;51.420;5.682;2023-12-20T10:03:57;101387.16;;;6.69;100.00
64095;BME280;50353;51.420;5.682;2023-12-20T10:06:25;101369.19;;;6.56;100.00
64095;BME280;50353;51.420;5.682;2023-12-20T10:08:50;101386.06;;;6.74;100.00
64095;BME280;50353;51.420;5.682;2023-12-20T10:11:15;101377.19;;;6.53;100.00
64095;BME280;50353;51.420;5.682;2023-12-20T10:13:42;101374.06;;;6.67;100.00
64095;BME280;50353;51.420;5.682;2023-12-20T10:16:07;101373.09;;;6.70;100.00
64095;BME280;50353;51.420;5.682;2023-12-20T10:18:33;101380.94;;;6.71;100.00
64095;BME280;50353;51.420;5.682;2023-12-20T10:20:58;101384.53;;;6.69;100.00
64095;BME280;50353;51.420;5.682;2023-12-20T10:23:24;101376.19;;;6.81;100.00
64095;BME280;50353;51.420;5.682;2023-12-20T10:25:56;101374.59;;;6.77;100.00
64095;BME280;50353;51.420;5.682;2023-12-20T10:28:22;101370.19;;;6.77;100.00
64095;BME280;50353;51.420;5.682;2023-12-20T10:30:50;101366.22;;;6.91;100.00
64095;BME280;50353;51.420;5.682;2023-12-20T10:33:26;101365.13;;;6.97;100.00
64095;BME280;50353;51.420;5.682;2023-12-20T10:35:52;101379.72;;;6.80;100.00
64095;BME280;50353;51.420;5.682;2023-12-20T10:38:19;101381.31;;;6.86;100.00
64095;BME280;50353;51.420;5.682;2023-12-20T10:40:47;101384.78;;;6.86;100.00
64095;BME280;50353;51.420;5.682;2023-12-20T10:43:13;101380.50;;;6.84;100.00
64095;BME280;50353;51.420;5.682;2023-12-20T10:45:41;101376.97;;;6.85;100.00
64095;BME280;50353;51.420;5.682;2023-12-20T10:48:07;101371.66;;;6.86;100.00
64095;BME280;50353;51.420;5.682;2023-12-20T10:50:36;101359.09;;;6.94;100.00
64095;BME280;50353;51.420;5.682;2023-12-20T10:53:03;101364.16;;;6.99;100.00
64095;BME280;50353;51.420;5.682;2023-12-20T10:55:29;101363.00;;;6.83;100.00
64095;BME280;50353;51.420;5.682;2023-12-20T10:58:01;101364.41;;;6.93;100.00
64095;BME280;50353;51.420;5.682;2023-12-20T11:00:29;101357.22;;;6.98;100.00
64095;BME280;50353;51.420;5.682;2023-12-20T11:03:00;101342.34;;;6.97;100.00
64095;BME280;50353;51.420;5.682;2023-12-20T11:05:31;101350.34;;;6.94;100.00
64095;BME280;50353;51.420;5.682;2023-12-20T11:08:06;101338.44;;;7.07;100.00
64095;BME280;50353;51.420;5.682;2023-12-20T11:10:47;101337.25;;;6.92;100.00
64095;BME280;50353;51.420;5.682;2023-12-20T11:13:53;101331.31;;;7.11;100.00
64095;BME280;50353;51.420;5.682;2023-12-20T11:16:19;101340.97;;;7.10;100.00
64095;BME280;50353;51.420;5.682;2023-12-20T11:18:45;101338.91;;;6.95;100.00
64095;BME280;50353;51.420;5.682;2023-12-20T11:21:10;101341.38;;;7.00;100.00
64095;BME280;50353;51.420;5.682;2023-12-20T11:23:36;101339.84;;;6.94;100.00
64095;BME280;50353;51.420;5.682;2023-12-20T11:26:02;101340.88;;;6.90;100.00
64095;BME280;50353;51.420;5.682;2023-12-20T11:28:28;101332.88;;;6.93;100.00
64095;BME280;50353;51.420;5.682;2023-12-20T11:30:56;101345.03;;;6.96;100.00
64095;BME280;50353;51.420;5.682;2023-12-20T11:33:25;101340.16;;;7.08;100.00
64095;BME280;50353;51.420;5.682;2023-12-20T11:35:51;101329.94;;;7.01;100.00
64095;BME280;50353;51.420;5.682;2023-12-20T11:38:19;101331.97;;;6.94;100.00
64095;BME280;50353;51.420;5.682;2023-12-20T11:40:48;101313.66;;;6.91;100.00
64095;BME280;50353;51.420;5.682;2023-12-20T11:43:29;101314.97;;;6.79;100.00
64095;BME280;50353;51.420;5.682;2023-12-20T11:45:54;101319.03;;;6.88;100.00
64095;BME280;50353;51.420;5.682;2023-12-20T11:48:20;101315.06;;;6.76;100.00
64095;BME280;50353;51.420;5.682;2023-12-20T11:50:46;101322.63;;;6.85;100.00
64095;BME280;50353;51.420;5.682;2023-12-20T11:53:11;101321.25;;;6.75;100.00
64095;BME280;50353;51.420;5.682;2023-12-20T11:55:37;101320.06;;;6.84;100.00
64095;BME280;50353;51.420;5.682;2023-12-20T11:58:02;101323.59;;;6.83;100.00
64095;BME280;50353;51.420;5.682;2023-12-20T12:00:28;101327.94;;;6.84;100.00
64095;BME280;50353;51.420;5.682;2023-12-20T12:02:58;101322.56;;;6.87;100.00
64095;BME280;50353;51.420;5.682;2023-12-20T12:05:24;101330.63;;;6.82;100.00
64095;BME280;50353;51.420;5.682;2023-12-20T12:07:49;101327.75;;;6.88;100.00
64095;BME280;50353;51.420;5.682;2023-12-20T12:10:14;101335.81;;;6.84;100.00
64095;BME280;50353;51.420;5.682;2023-12-20T12:12:40;101325.38;;;6.82;100.00
64095;BME280;50353;51.420;5.682;2023-12-20T12:15:06;101317.56;;;6.81;100.00
64095;BME280;50353;51.420;5.682;2023-12-20T12:17:31;101311.47;;;6.79;100.00
64095;BME280;50353;51.420;5.682;2023-12-20T12:20:04;101310.38;;;6.86;100.00
64095;BME280;50353;51.420;5.682;2023-12-20T12:22:30;101300.06;;;6.80;100.00
64095;BME280;50353;51.420;5.682;2023-12-20T12:24:59;101291.56;;;6.73;100.00
64095;BME280;50353;51.420;5.682;2023-12-20T12:27:27;101286.03;;;6.81;100.00
64095;BME280;50353;51.420;5.682;2023-12-20T12:30:02;101284.34;;;6.78;100.00
64095;BME280;50353;51.420;5.682;2023-12-20T12:32:29;101298.00;;;6.88;100.00
64095;BME280;50353;51.420;5.682;2023-12-20T12:34:54;101288.97;;;6.95;100.00
64095;BME280;50353;51.420;5.682;2023-12-20T12:37:20;101300.44;;;6.92;100.00
64095;BME280;50353;51.420;5.682;2023-12-20T12:39:46;101278.97;;;6.81;100.00
64095;BME280;50353;51.420;5.682;2023-12-20T12:42:11;101288.06;;;6.96;100.00
64095;BME280;50353;51.420;5.682;2023-12-20T12:44:37;101288.19;;;6.93;100.00